createdAt,value
2023-03-02T00:04:48.378Z,30.60
2023-03-02T00:10:10.332Z,33.33
2023-03-02T00:15:31.025Z,29.13
2023-03-02T00:20:51.928Z,35.33
2023-03-02T00:26:12.467Z,30.10
2023-03-02T00:31:34.223Z,35.22
2023-03-02T00:36:54.806Z,33.30
2023-03-02T00:42:15.702Z,31.52
2023-03-02T00:47:37.399Z,32.83
2023-03-02T00:52:58.191Z,30.35
2023-03-02T00:58:19.024Z,33.13
2023-03-02T01:03:40.203Z,34.40
2023-03-02T01:09:01.811Z,36.85
2023-03-02T01:14:23.052Z,34.42
2023-03-02T01:19:44.046Z,34.63
2023-03-02T01:25:05.517Z,39.45
2023-03-02T01:30:26.443Z,32.97
2023-03-02T01:35:47.891Z,30.50
2023-03-02T01:41:08.740Z,30.95
2023-03-02T01:46:35.261Z,32.75
2023-03-02T01:51:56.814Z,31.20
2023-03-02T01:57:23.915Z,31.40
2023-03-02T02:02:45.522Z,37.65
2023-03-02T02:08:07.536Z,36.58
2023-03-02T02:13:28.745Z,34.55
2023-03-02T02:18:49.560Z,33.58
2023-03-02T02:24:16.211Z,32.13
2023-03-02T02:29:47.446Z,34.40
2023-03-02T02:35:22.100Z,34.47
2023-03-02T02:40:51.746Z,34.17
2023-03-02T02:46:15.474Z,28.52
2023-03-02T02:51:37.170Z,34.38
2023-03-02T02:56:59.652Z,33.45
2023-03-02T03:02:27.888Z,27.85
2023-03-02T03:07:49.726Z,35.78
2023-03-02T03:13:12.455Z,33.95
2023-03-02T03:18:33.257Z,28.75
2023-03-02T03:23:54.556Z,34.72
2023-03-02T03:29:17.460Z,35.20
2023-03-02T03:34:41.012Z,30.58
2023-03-02T03:45:33.478Z,30.20
2023-03-02T03:50:54.127Z,34.13
2023-03-02T03:56:15.425Z,28.80
2023-03-02T04:01:38.058Z,30.67
2023-03-02T04:06:59.733Z,38.47
2023-03-02T04:12:20.751Z,33.88
2023-03-02T04:17:45.717Z,38.30
2023-03-02T04:23:09.256Z,37.78
2023-03-02T04:28:29.988Z,40.20
2023-03-02T04:33:52.262Z,41.50
2023-03-02T04:39:16.815Z,30.27
2023-03-02T04:44:42.452Z,44.08
2023-03-02T04:50:03.499Z,46.75
2023-03-02T04:55:26.087Z,41.22
2023-03-02T05:00:46.941Z,39.38
2023-03-02T05:06:08.392Z,43.35
2023-03-02T05:11:29.485Z,45.72
2023-03-02T05:16:50.278Z,45.55
2023-03-02T05:22:11.140Z,44.88
2023-03-02T05:27:31.982Z,48.78
2023-03-02T05:32:53.130Z,39.65
2023-03-02T05:38:14.801Z,40.22
2023-03-02T05:43:36.438Z,41.65
2023-03-02T05:48:57.714Z,42.63
2023-03-02T05:54:18.735Z,41.25
2023-03-02T05:59:39.765Z,44.22
2023-03-02T06:05:00.509Z,41.72
2023-03-02T06:10:21.361Z,40.22
2023-03-02T06:15:43.199Z,40.83
2023-03-02T06:21:04.427Z,35.97
2023-03-02T06:26:25.628Z,42.22
2023-03-02T06:31:46.683Z,40.03
2023-03-02T06:37:07.418Z,43.83
2023-03-02T06:42:28.847Z,41.97
2023-03-02T06:47:50.042Z,41.58
2023-03-02T06:53:10.740Z,37.03
2023-03-02T06:58:31.416Z,36.88
2023-03-02T07:03:52.177Z,33.33
2023-03-02T07:09:12.836Z,42.47
2023-03-02T07:14:36.368Z,54.47
2023-03-02T07:19:57.141Z,53.53
2023-03-02T07:25:18.034Z,49.03
2023-03-02T07:30:38.720Z,57.72
2023-03-02T07:35:59.510Z,56.30
2023-03-02T07:41:20.079Z,47.38
2023-03-02T07:46:41.080Z,33.92
2023-03-02T07:52:02.958Z,35.85
2023-03-02T07:57:23.939Z,29.17
2023-03-02T08:02:45.210Z,33.47
2023-03-02T08:08:06.194Z,33.28
2023-03-02T08:13:27.086Z,34.60
2023-03-02T08:18:47.913Z,29.35
2023-03-02T08:24:10.262Z,24.05
2023-03-02T08:29:31.216Z,24.25
2023-03-02T08:34:52.564Z,20.50
2023-03-02T08:40:13.304Z,21.70
2023-03-02T08:45:34.940Z,18.73
2023-03-02T08:51:03.371Z,25.20
2023-03-02T08:56:27.358Z,27.05
2023-03-02T09:01:48.357Z,26.40
2023-03-02T09:07:09.802Z,24.13
2023-03-02T09:12:30.525Z,22.83
2023-03-02T09:17:51.299Z,22.83
2023-03-02T09:23:13.703Z,20.40
2023-03-02T09:28:36.274Z,27.63
2023-03-02T09:33:57.283Z,31.10
2023-03-02T09:39:19.489Z,36.22
2023-03-02T09:45:01.933Z,32.42
2023-03-02T09:50:34.171Z,44.05
2023-03-02T09:56:00.266Z,32.80
2023-03-02T10:01:30.509Z,32.08
2023-03-02T10:12:40.796Z,28.85
2023-03-02T10:18:23.473Z,33.43
2023-03-02T10:24:07.888Z,34.80
2023-03-02T10:29:49.075Z,38.08
2023-03-02T10:35:19.393Z,36.42
2023-03-02T10:46:07.637Z,32.25
2023-03-02T10:51:31.213Z,38.85
2023-03-02T10:56:55.229Z,34.38
2023-03-02T11:02:24.717Z,37.70
2023-03-02T11:08:17.357Z,35.90
2023-03-02T11:13:39.548Z,38.90
2023-03-02T11:19:29.903Z,42.83
2023-03-02T11:24:56.159Z,30.55
2023-03-02T11:30:20.408Z,35.67
2023-03-02T11:36:06.618Z,31.60
2023-03-02T11:41:33.874Z,37.30
2023-03-02T11:47:01.260Z,28.98
2023-03-02T11:52:24.918Z,36.03
2023-03-02T11:57:50.778Z,37.45
2023-03-02T12:03:24.600Z,36.78
2023-03-02T12:08:46.888Z,35.20
2023-03-02T12:14:28.920Z,31.83
2023-03-02T12:19:50.967Z,36.80
2023-03-02T12:25:21.476Z,29.27
2023-03-02T12:30:42.298Z,36.47
2023-03-02T12:36:16.719Z,33.40
2023-03-02T12:42:13.823Z,27.48
2023-03-02T12:47:35.336Z,30.52
2023-03-02T12:53:01.860Z,27.45
2023-03-02T12:58:25.941Z,29.58
2023-03-02T13:03:48.728Z,25.95
2023-03-02T13:09:15.234Z,23.42
2023-03-02T13:14:35.962Z,23.85
2023-03-02T13:20:03.285Z,27.80
2023-03-02T13:25:31.732Z,17.95
2023-03-02T13:30:58.110Z,23.77
2023-03-02T13:36:23.606Z,21.52
2023-03-02T13:41:56.584Z,18.75
2023-03-02T13:47:24.017Z,17.33
2023-03-02T13:52:45.018Z,17.88
2023-03-02T13:58:13.546Z,20.83
2023-03-02T14:03:34.104Z,19.52
2023-03-02T14:08:54.869Z,22.83
2023-03-02T14:14:22.737Z,17.98
2023-03-02T14:19:43.472Z,19.98
2023-03-02T14:25:04.376Z,19.33
2023-03-02T14:30:25.298Z,17.35
2023-03-02T14:35:46.684Z,19.80
2023-03-02T14:41:07.521Z,15.60
2023-03-02T14:46:28.274Z,13.88
2023-03-02T14:52:18.019Z,19.58
2023-03-02T14:57:39.110Z,15.02
2023-03-02T15:03:00.036Z,18.10
2023-03-02T15:08:22.420Z,17.80
2023-03-02T15:13:45.679Z,15.23
2023-03-02T15:19:06.925Z,14.93
2023-03-02T15:24:27.790Z,14.70
2023-03-02T15:29:48.598Z,17.67
2023-03-02T15:35:09.932Z,14.93
2023-03-02T15:40:30.787Z,14.68
2023-03-02T15:45:51.520Z,14.30
2023-03-02T15:51:12.316Z,16.05
2023-03-02T15:56:43.736Z,12.23
2023-03-02T16:02:05.290Z,17.13
2023-03-02T16:07:26.587Z,15.70
2023-03-02T16:12:47.255Z,14.45
2023-03-02T16:18:09.764Z,17.27
2023-03-02T16:23:30.670Z,16.88
2023-03-02T16:28:51.400Z,17.33
2023-03-02T16:34:13.102Z,17.02
2023-03-02T16:39:34.198Z,22.02
2023-03-02T16:44:54.920Z,20.75
2023-03-02T16:50:17.058Z,21.80
2023-03-02T16:55:38.082Z,21.20
2023-03-02T17:00:58.912Z,21.42
2023-03-02T17:06:22.729Z,15.65
2023-03-02T17:11:43.715Z,16.10
2023-03-02T17:17:04.669Z,13.85
2023-03-02T17:22:25.490Z,19.27
2023-03-02T17:27:46.361Z,21.00
2023-03-02T17:33:07.676Z,20.02
2023-03-02T17:38:28.487Z,19.60
2023-03-02T17:43:49.090Z,33.20
2023-03-02T17:49:09.894Z,26.23
2023-03-02T17:54:30.668Z,22.00
2023-03-02T17:59:51.795Z,18.77
2023-03-02T18:05:13.456Z,19.02
2023-03-02T18:10:34.633Z,22.67
2023-03-02T18:15:55.489Z,32.78
2023-03-02T18:21:16.628Z,30.45
2023-03-02T18:26:37.692Z,31.30
2023-03-02T18:31:59.630Z,31.23
2023-03-02T18:37:20.958Z,33.30
2023-03-02T18:42:42.094Z,21.75
2023-03-02T18:48:03.294Z,22.92
2023-03-02T18:53:24.609Z,21.30
2023-03-02T18:58:46.124Z,20.10
2023-03-02T19:04:07.169Z,20.48
2023-03-02T19:09:28.600Z,24.02
2023-03-02T19:14:49.639Z,19.75
2023-03-02T19:20:16.903Z,21.55
2023-03-02T19:25:38.751Z,22.92
2023-03-02T19:31:06.838Z,23.92
2023-03-02T19:36:28.000Z,22.95
2023-03-02T19:41:48.739Z,22.08
2023-03-02T19:47:09.489Z,25.52
2023-03-02T19:52:30.857Z,22.83
2023-03-02T19:57:59.592Z,19.55
2023-03-02T20:03:20.840Z,19.88
2023-03-02T20:08:42.123Z,20.77
2023-03-02T20:14:02.638Z,19.02
2023-03-02T20:19:23.456Z,18.40
2023-03-02T20:24:44.594Z,18.50
2023-03-02T20:30:10.315Z,18.20
2023-03-02T20:35:33.106Z,17.48
2023-03-02T20:40:54.193Z,22.45
2023-03-02T20:46:30.417Z,32.20
2023-03-02T20:51:54.755Z,35.60
2023-03-02T20:57:18.262Z,38.42
2023-03-02T21:02:39.325Z,41.13
2023-03-02T21:08:00.810Z,28.98
2023-03-02T21:13:22.571Z,24.77
2023-03-02T21:18:43.886Z,23.40
2023-03-02T21:24:05.011Z,25.13
2023-03-02T21:29:26.979Z,26.02
2023-03-02T21:34:47.875Z,23.92
2023-03-02T21:40:14.726Z,25.33
2023-03-02T21:45:37.082Z,26.75
2023-03-02T21:50:58.782Z,28.90
2023-03-02T21:56:22.457Z,27.65
2023-03-02T22:01:43.992Z,26.52
2023-03-02T22:07:04.906Z,32.22
2023-03-02T22:12:25.853Z,29.20
2023-03-02T22:17:47.099Z,27.63
2023-03-02T22:23:21.137Z,31.00
2023-03-02T22:28:41.962Z,32.58
2023-03-02T22:34:13.177Z,33.53
2023-03-02T22:39:34.173Z,32.63
2023-03-02T22:45:21.985Z,32.35
2023-03-02T22:50:45.595Z,29.85
2023-03-02T22:56:21.182Z,31.50
2023-03-02T23:01:44.744Z,31.30
2023-03-02T23:07:16.748Z,33.88
2023-03-02T23:12:46.728Z,35.25
2023-03-02T23:18:29.567Z,29.02
2023-03-02T23:23:51.109Z,35.25
2023-03-02T23:29:12.208Z,32.03
2023-03-02T23:34:33.299Z,34.97
2023-03-02T23:39:53.976Z,31.95
2023-03-02T23:45:16.005Z,33.50
2023-03-02T23:50:37.203Z,32.42
2023-03-02T23:55:58.078Z,35.28
